createdAt,value
2022-09-28T00:01:27.500Z,90.30
2022-09-28T00:03:54.486Z,89.28
2022-09-28T00:06:22.390Z,88.89
2022-09-28T00:08:46.172Z,90.07
2022-09-28T00:11:15.221Z,88.81
2022-09-28T00:13:38.897Z,88.23
2022-09-28T00:16:04.556Z,88.33
2022-09-28T00:18:28.482Z,88.23
2022-09-28T00:21:02.510Z,89.20
2022-09-28T00:23:26.102Z,90.90
2022-09-28T00:25:49.718Z,90.94
2022-09-28T00:28:14.644Z,90.28
2022-09-28T00:30:38.154Z,89.91
2022-09-28T00:33:01.731Z,89.93
2022-09-28T00:35:25.328Z,89.95
2022-09-28T00:37:50.950Z,89.30
2022-09-28T00:40:14.594Z,89.39
2022-09-28T00:42:38.207Z,91.69
2022-09-28T00:45:03.176Z,90.68
2022-09-28T00:47:41.292Z,90.89
2022-09-28T00:50:11.637Z,90.67
2022-09-28T00:52:41.873Z,90.00
2022-09-28T00:55:09.824Z,91.41
2022-09-28T00:57:34.403Z,91.82
2022-09-28T00:59:58.275Z,91.79
2022-09-28T01:02:23.551Z,90.93
2022-09-28T01:04:47.526Z,92.36
2022-09-28T01:07:12.617Z,92.71
2022-09-28T01:09:40.462Z,92.22
2022-09-28T01:12:04.750Z,90.39
2022-09-28T01:14:28.390Z,90.76
2022-09-28T01:17:01.414Z,92.24
2022-09-28T01:20:25.356Z,91.23
2022-09-28T01:23:40.221Z,91.50
2022-09-28T01:26:52.663Z,91.25
2022-09-28T01:29:23.931Z,90.75
2022-09-28T01:31:52.661Z,89.49
2022-09-28T01:34:22.262Z,90.00
2022-09-28T01:36:50.695Z,89.42
2022-09-28T01:39:19.118Z,88.84
2022-09-28T01:41:47.418Z,88.59
2022-09-28T01:44:16.495Z,88.10
2022-09-28T01:46:44.831Z,88.30
2022-09-28T01:49:17.569Z,89.19
2022-09-28T01:51:45.151Z,88.63
2022-09-28T01:54:13.814Z,87.84
2022-09-28T01:56:44.182Z,88.02
2022-09-28T01:59:15.606Z,89.03
2022-09-28T02:01:44.541Z,87.84
2022-09-28T02:04:14.760Z,88.17
2022-09-28T02:06:49.029Z,88.36
2022-09-28T02:09:18.158Z,87.38
2022-09-28T02:11:51.531Z,88.15
2022-09-28T02:14:19.778Z,87.24
2022-09-28T02:16:46.689Z,88.33
2022-09-28T02:19:14.189Z,87.71
2022-09-28T02:21:44.704Z,88.39
2022-09-28T02:24:21.269Z,87.89
2022-09-28T02:26:49.362Z,86.75
2022-09-28T02:29:13.067Z,87.37
2022-09-28T02:31:38.241Z,86.51
2022-09-28T02:34:01.940Z,86.94
2022-09-28T02:36:27.912Z,86.48
2022-09-28T02:38:51.431Z,86.42
2022-09-28T02:41:35.684Z,85.97
2022-09-28T02:44:11.719Z,85.69
2022-09-28T02:46:47.951Z,86.57
2022-09-28T02:49:31.202Z,86.06
2022-09-28T02:52:34.988Z,85.77
2022-09-28T02:55:18.734Z,86.62
2022-09-28T02:58:01.647Z,85.70
2022-09-28T03:00:26.015Z,86.48
2022-09-28T03:03:13.551Z,86.04
2022-09-28T03:05:47.154Z,85.76
2022-09-28T03:08:22.361Z,86.53
2022-09-28T03:10:50.956Z,87.07
2022-09-28T03:13:16.417Z,88.72
2022-09-28T03:15:40.476Z,86.93
2022-09-28T03:18:05.928Z,87.83
2022-09-28T03:20:31.489Z,86.20
2022-09-28T03:23:20.178Z,86.32
2022-09-28T03:25:38.904Z,87.24
2022-09-28T03:28:02.975Z,85.07
2022-09-28T03:30:30.062Z,84.71
2022-09-28T03:32:59.583Z,86.34
2022-09-28T03:35:26.948Z,86.03
2022-09-28T03:37:50.631Z,85.57
2022-09-28T03:40:14.386Z,88.25
2022-09-28T03:42:38.817Z,86.92
2022-09-28T03:45:02.377Z,87.29
2022-09-28T03:47:26.023Z,86.59
2022-09-28T03:49:49.630Z,86.62
2022-09-28T03:52:15.325Z,87.19
2022-09-28T03:54:39.014Z,87.50
2022-09-28T03:57:02.615Z,86.84
2022-09-28T03:59:26.418Z,87.46
2022-09-28T04:01:51.199Z,86.16
2022-09-28T04:04:15.390Z,86.63
2022-09-28T04:06:38.942Z,86.21
2022-09-28T04:09:03.927Z,86.81
2022-09-28T04:11:34.926Z,85.52
2022-09-28T04:14:06.638Z,85.17
2022-09-28T04:16:30.334Z,86.41
2022-09-28T04:19:06.555Z,86.52
2022-09-28T04:21:44.974Z,85.73
2022-09-28T04:24:12.804Z,85.53
2022-09-28T04:26:36.359Z,87.78
2022-09-28T04:29:17.057Z,87.77
2022-09-28T04:31:49.650Z,87.57
2022-09-28T04:34:17.348Z,86.57
2022-09-28T04:36:41.092Z,87.52
2022-09-28T04:39:06.195Z,89.07
2022-09-28T04:41:31.446Z,89.43
2022-09-28T04:43:55.164Z,88.33
2022-09-28T04:46:21.599Z,89.95
2022-09-28T04:48:53.677Z,88.29
2022-09-28T04:51:41.271Z,87.39
2022-09-28T04:54:05.062Z,87.41
2022-09-28T04:56:30.548Z,87.03
2022-09-28T04:58:54.203Z,85.33
2022-09-28T05:01:23.642Z,85.95
2022-09-28T05:03:56.635Z,86.37
2022-09-28T05:06:30.786Z,86.46
2022-09-28T05:09:02.781Z,85.81
2022-09-28T05:11:26.386Z,87.37
2022-09-28T05:13:51.454Z,85.36
2022-09-28T05:16:17.197Z,85.35
2022-09-28T05:19:03.890Z,85.04
2022-09-28T05:21:29.293Z,87.17
2022-09-28T05:23:56.061Z,86.68
2022-09-28T05:26:20.173Z,86.75
2022-09-28T05:28:44.667Z,86.78
2022-09-28T05:31:41.577Z,87.62
2022-09-28T05:34:22.427Z,86.50
2022-09-28T05:36:46.067Z,88.06
2022-09-28T05:39:10.111Z,88.47
2022-09-28T05:41:33.851Z,88.64
2022-09-28T05:43:58.174Z,88.62
2022-09-28T05:46:23.811Z,89.22
2022-09-28T05:48:49.759Z,89.28
2022-09-28T05:51:14.127Z,90.03
2022-09-28T05:53:37.809Z,90.11
2022-09-28T05:56:02.242Z,87.57
2022-09-28T05:58:29.079Z,89.60
2022-09-28T06:00:56.548Z,88.42
2022-09-28T06:03:20.136Z,88.99
2022-09-28T06:05:45.350Z,89.00
2022-09-28T06:08:11.654Z,89.29
2022-09-28T06:10:40.938Z,87.85
2022-09-28T06:13:04.696Z,88.94
2022-09-28T06:15:30.528Z,87.45
2022-09-28T06:17:59.587Z,88.57
2022-09-28T06:20:36.876Z,88.65
2022-09-28T06:23:07.749Z,88.54
2022-09-28T06:25:31.468Z,87.72
2022-09-28T06:27:59.423Z,87.36
2022-09-28T06:30:23.440Z,87.24
2022-09-28T06:32:46.983Z,89.36
2022-09-28T06:37:34.479Z,89.11
2022-09-28T06:40:00.596Z,85.60
2022-09-28T06:42:24.230Z,87.27
2022-09-28T06:45:08.170Z,87.04
2022-09-28T06:48:01.483Z,84.60
2022-09-28T06:50:36.024Z,83.94
2022-09-28T06:53:17.988Z,83.89
2022-09-28T06:55:54.006Z,84.05
2022-09-28T06:58:20.761Z,80.65
2022-09-28T07:00:45.285Z,79.07
2022-09-28T07:03:13.007Z,79.46
2022-09-28T07:05:59.588Z,76.70
2022-09-28T07:08:36.355Z,78.71
2022-09-28T07:11:21.232Z,78.67
2022-09-28T07:14:07.075Z,79.58
2022-09-28T07:16:52.684Z,78.02
2022-09-28T07:19:16.597Z,78.26
2022-09-28T07:21:40.955Z,76.83
2022-09-28T07:24:05.611Z,77.80
2022-09-28T07:26:53.308Z,77.50
2022-09-28T07:29:28.571Z,74.16
2022-09-28T07:31:57.070Z,73.98
2022-09-28T07:34:41.327Z,76.14
2022-09-28T07:37:27.394Z,74.11
2022-09-28T07:40:08.622Z,74.83
2022-09-28T07:42:36.350Z,73.54
2022-09-28T07:45:00.135Z,73.81
2022-09-28T07:47:30.805Z,72.33
2022-09-28T07:50:16.722Z,72.88
2022-09-28T07:52:50.170Z,74.64
2022-09-28T07:55:24.787Z,73.21
2022-09-28T07:58:05.594Z,73.87
2022-09-28T08:00:48.798Z,72.46
2022-09-28T08:03:12.920Z,71.86
2022-09-28T08:05:36.513Z,74.62
2022-09-28T08:08:00.539Z,72.74
2022-09-28T08:10:25.692Z,71.84
2022-09-28T08:13:08.722Z,72.18
2022-09-28T08:15:36.940Z,73.25
2022-09-28T08:18:08.796Z,73.41
2022-09-28T08:20:51.565Z,72.68
2022-09-28T08:23:15.715Z,72.20
2022-09-28T08:25:39.279Z,75.17
2022-09-28T08:28:03.996Z,71.87
2022-09-28T08:30:31.733Z,73.43
2022-09-28T08:33:14.247Z,72.70
2022-09-28T08:35:37.998Z,72.38
2022-09-28T08:38:19.981Z,70.93
2022-09-28T08:41:20.616Z,73.62
2022-09-28T08:44:24.167Z,73.88
2022-09-28T08:47:29.215Z,73.43
2022-09-28T08:50:19.152Z,74.18
2022-09-28T08:53:14.719Z,72.48
2022-09-28T08:55:49.554Z,72.09
2022-09-28T08:58:17.719Z,72.42
2022-09-28T09:00:48.668Z,70.56
2022-09-28T09:03:19.458Z,73.39
2022-09-28T09:06:03.707Z,74.39
2022-09-28T09:09:01.051Z,72.20
2022-09-28T09:11:45.343Z,72.31
2022-09-28T09:14:53.227Z,71.06
2022-09-28T09:17:29.359Z,70.55
2022-09-28T09:20:24.250Z,73.72
2022-09-28T09:23:01.694Z,71.12
2022-09-28T09:25:29.733Z,70.53
2022-09-28T09:28:40.782Z,70.02
2022-09-28T09:31:22.717Z,68.49
2022-09-28T09:34:45.999Z,68.79
2022-09-28T09:38:06.577Z,70.77
2022-09-28T09:40:58.911Z,68.20
2022-09-28T09:44:11.771Z,68.32
2022-09-28T09:46:47.105Z,69.36
2022-09-28T09:49:17.585Z,66.65
2022-09-28T09:51:47.482Z,68.01
2022-09-28T09:54:22.436Z,65.12
2022-09-28T09:56:53.403Z,61.97
2022-09-28T09:59:47.231Z,62.79
2022-09-28T10:02:26.226Z,60.49
2022-09-28T10:05:03.403Z,62.85
2022-09-28T10:07:43.425Z,62.00
2022-09-28T10:10:15.451Z,62.48
2022-09-28T10:12:49.672Z,60.77
2022-09-28T10:15:17.874Z,62.56
2022-09-28T10:17:51.367Z,61.71
2022-09-28T10:20:38.308Z,62.96
2022-09-28T10:23:20.244Z,62.60
2022-09-28T10:25:47.714Z,60.87
2022-09-28T10:28:20.751Z,61.91
2022-09-28T10:30:45.040Z,62.49
2022-09-28T10:33:31.135Z,58.75
2022-09-28T10:35:55.339Z,59.85
2022-09-28T10:38:20.373Z,60.61
2022-09-28T10:40:50.525Z,60.82
2022-09-28T10:43:28.313Z,61.09
2022-09-28T10:46:04.858Z,59.74
2022-09-28T10:48:31.641Z,61.48
2022-09-28T10:51:05.238Z,61.36
2022-09-28T10:53:30.268Z,60.71
2022-09-28T10:56:04.572Z,61.32
2022-09-28T10:58:35.427Z,61.23
2022-09-28T11:01:09.327Z,60.39
2022-09-28T11:03:33.295Z,60.88
2022-09-28T11:06:05.068Z,62.03
2022-09-28T11:08:32.963Z,61.91
2022-09-28T11:11:12.235Z,62.77
2022-09-28T11:13:48.839Z,64.08
2022-09-28T11:16:30.086Z,64.64
2022-09-28T11:18:55.110Z,62.52
2022-09-28T11:21:24.090Z,61.17
2022-09-28T11:24:19.713Z,62.26
2022-09-28T11:26:48.442Z,62.06
2022-09-28T11:29:32.179Z,59.16
2022-09-28T11:32:23.031Z,61.58
2022-09-28T11:35:20.758Z,61.31
2022-09-28T11:38:05.183Z,62.34
2022-09-28T11:41:28.648Z,61.89
2022-09-28T11:44:39.579Z,64.87
2022-09-28T11:47:50.549Z,64.64
2022-09-28T11:50:31.810Z,63.52
2022-09-28T11:53:10.731Z,63.45
2022-09-28T11:55:40.373Z,64.98
2022-09-28T11:58:12.066Z,65.36
2022-09-28T12:00:45.527Z,65.87
2022-09-28T12:03:17.535Z,68.29
2022-09-28T12:05:48.111Z,66.16
2022-09-28T12:08:19.282Z,65.35
2022-09-28T12:11:07.090Z,66.31
2022-09-28T12:13:51.563Z,64.76
2022-09-28T12:16:46.856Z,66.27
2022-09-28T12:19:09.519Z,67.25
2022-09-28T12:21:42.679Z,67.55
2022-09-28T12:24:15.623Z,68.51
2022-09-28T12:26:48.807Z,66.79
2022-09-28T12:29:17.412Z,64.86
2022-09-28T12:31:58.031Z,64.19
2022-09-28T12:34:22.720Z,61.99
2022-09-28T12:37:07.094Z,60.89
2022-09-28T12:39:57.422Z,62.32
2022-09-28T12:42:42.396Z,61.39
2022-09-28T12:45:28.826Z,60.75
2022-09-28T12:48:21.687Z,60.08
2022-09-28T12:50:57.629Z,61.37
2022-09-28T12:53:51.348Z,60.78
2022-09-28T12:56:21.697Z,60.23
2022-09-28T12:59:03.309Z,58.56
2022-09-28T13:01:59.944Z,60.91
2022-09-28T13:04:48.865Z,59.03
2022-09-28T13:07:22.840Z,59.44
2022-09-28T13:09:55.076Z,55.01
2022-09-28T13:12:36.581Z,55.75
2022-09-28T13:15:42.878Z,55.63
2022-09-28T13:18:18.728Z,59.34
2022-09-28T13:21:01.432Z,55.36
2022-09-28T13:23:29.569Z,57.70
2022-09-28T13:25:58.662Z,56.13
2022-09-28T13:28:27.013Z,58.04
2022-09-28T13:30:51.801Z,55.96
2022-09-28T13:33:24.155Z,55.87
2022-09-28T13:35:49.371Z,57.91
2022-09-28T13:38:50.951Z,57.48
2022-09-28T13:41:24.910Z,54.02
2022-09-28T13:44:33.199Z,54.78
2022-09-28T13:47:21.226Z,53.90
2022-09-28T13:50:00.433Z,52.42
2022-09-28T13:52:41.459Z,52.66
2022-09-28T13:55:22.162Z,54.48
2022-09-28T13:57:51.930Z,54.79
2022-09-28T14:00:23.447Z,54.31
2022-09-28T14:02:50.592Z,55.19
2022-09-28T14:05:51.128Z,55.34
2022-09-28T14:08:36.510Z,57.16
2022-09-28T14:11:45.488Z,57.06
2022-09-28T14:14:48.696Z,56.01
2022-09-28T14:18:02.358Z,54.13
2022-09-28T14:20:28.519Z,55.56
2022-09-28T14:23:37.764Z,57.19
2022-09-28T14:26:21.782Z,56.98
2022-09-28T14:29:01.949Z,55.46
2022-09-28T14:31:28.944Z,57.42
2022-09-28T14:33:58.999Z,56.11
2022-09-28T14:36:41.303Z,55.79
2022-09-28T14:39:22.732Z,56.62
2022-09-28T14:41:46.679Z,57.33
2022-09-28T14:44:13.556Z,58.08
2022-09-28T14:46:44.780Z,58.46
2022-09-28T14:49:47.582Z,58.28
2022-09-28T14:52:13.881Z,60.09
2022-09-28T14:54:46.546Z,56.87
2022-09-28T14:57:18.833Z,59.08
2022-09-28T14:59:46.268Z,58.92
2022-09-28T15:02:21.196Z,57.92
2022-09-28T15:04:50.400Z,61.43
2022-09-28T15:07:23.200Z,56.41
2022-09-28T15:09:51.383Z,58.68
2022-09-28T15:12:19.231Z,59.10
2022-09-28T15:14:49.040Z,57.19
2022-09-28T15:17:14.944Z,58.19
2022-09-28T15:19:46.087Z,59.45
2022-09-28T15:22:17.254Z,57.54
2022-09-28T15:24:41.295Z,59.65
2022-09-28T15:27:16.061Z,62.24
2022-09-28T15:29:40.651Z,58.80
2022-09-28T15:32:05.669Z,58.23
2022-09-28T15:34:49.683Z,59.22
2022-09-28T15:37:13.578Z,60.45
2022-09-28T15:39:37.439Z,60.76
2022-09-28T15:42:02.583Z,60.36
2022-09-28T15:44:34.014Z,60.22
2022-09-28T15:47:15.037Z,61.74
2022-09-28T15:49:44.511Z,62.73
2022-09-28T15:52:19.639Z,60.72
2022-09-28T15:54:45.970Z,62.82
2022-09-28T15:57:36.994Z,62.90
2022-09-28T16:00:01.829Z,63.37
2022-09-28T16:02:37.253Z,64.06
2022-09-28T16:05:04.630Z,65.92
2022-09-28T16:07:38.528Z,65.87
2022-09-28T16:10:11.235Z,66.04
2022-09-28T16:12:46.159Z,65.27
2022-09-28T16:15:20.521Z,66.58
2022-09-28T16:17:52.451Z,65.39
2022-09-28T16:20:29.482Z,68.07
2022-09-28T16:22:53.495Z,67.36
2022-09-28T16:25:23.060Z,67.96
2022-09-28T16:27:47.386Z,69.87
2022-09-28T16:30:24.454Z,70.43
2022-09-28T16:32:56.445Z,70.55
2022-09-28T16:35:25.999Z,70.34
2022-09-28T16:37:58.408Z,71.01
2022-09-28T16:40:23.248Z,72.06
2022-09-28T16:42:49.377Z,71.42
2022-09-28T16:45:21.673Z,72.38
2022-09-28T16:47:47.226Z,72.74
2022-09-28T16:50:16.966Z,73.08
2022-09-28T16:53:09.186Z,73.74
2022-09-28T16:55:40.412Z,71.63
2022-09-28T16:58:06.729Z,71.52
2022-09-28T17:00:30.235Z,71.36
2022-09-28T17:02:54.728Z,71.93
2022-09-28T17:05:20.538Z,71.59
2022-09-28T17:07:44.627Z,71.95
2022-09-28T17:10:19.267Z,70.96
2022-09-28T17:12:43.156Z,70.55
2022-09-28T17:15:07.847Z,70.90
2022-09-28T17:17:31.539Z,70.38
2022-09-28T17:19:55.079Z,70.92
2022-09-28T17:22:20.055Z,70.89
2022-09-28T17:24:45.564Z,71.09
2022-09-28T17:27:17.972Z,71.96
2022-09-28T17:29:41.635Z,70.61
2022-09-28T17:32:10.619Z,71.59
2022-09-28T17:34:34.172Z,72.59
2022-09-28T17:36:57.833Z,72.22
2022-09-28T17:39:24.995Z,71.73
2022-09-28T17:41:48.746Z,71.54
2022-09-28T17:44:16.212Z,72.83
2022-09-28T17:46:45.977Z,72.12
2022-09-28T17:49:12.995Z,73.13
2022-09-28T17:51:38.533Z,72.91
2022-09-28T17:54:02.887Z,73.97
2022-09-28T17:56:32.564Z,73.83
2022-09-28T17:58:57.852Z,74.29
2022-09-28T18:01:21.796Z,75.25
2022-09-28T18:03:45.714Z,73.67
2022-09-28T18:06:14.540Z,73.85
2022-09-28T18:08:38.639Z,75.02
2022-09-28T18:11:02.728Z,75.27
2022-09-28T18:13:27.692Z,75.64
2022-09-28T18:15:52.725Z,76.18
2022-09-28T18:18:16.370Z,75.41
2022-09-28T18:20:41.356Z,75.59
2022-09-28T18:23:05.743Z,75.53
2022-09-28T18:25:29.724Z,76.79
2022-09-28T18:27:57.223Z,75.03
2022-09-28T18:30:22.149Z,75.91
2022-09-28T18:32:45.693Z,76.34
2022-09-28T18:35:11.387Z,75.95
2022-09-28T18:37:37.619Z,76.49
2022-09-28T18:40:01.194Z,76.68
2022-09-28T18:42:24.888Z,77.70
2022-09-28T18:44:48.429Z,77.82
2022-09-28T18:47:15.142Z,76.91
2022-09-28T18:49:38.689Z,77.14
2022-09-28T18:52:02.920Z,77.25
2022-09-28T18:54:27.858Z,76.85
2022-09-28T18:56:51.789Z,76.99
2022-09-28T18:59:15.576Z,77.30
2022-09-28T19:01:39.490Z,77.18
2022-09-28T19:04:07.919Z,77.99
2022-09-28T19:06:32.132Z,78.70
2022-09-28T19:08:56.643Z,79.16
2022-09-28T19:11:20.611Z,78.78
2022-09-28T19:13:45.004Z,79.19
2022-09-28T19:16:10.048Z,78.35
2022-09-28T19:18:33.934Z,78.02
2022-09-28T19:21:04.596Z,77.91
2022-09-28T19:23:28.168Z,79.07
2022-09-28T19:25:51.699Z,79.00
2022-09-28T19:28:15.252Z,78.68
2022-09-28T19:30:38.877Z,78.32
2022-09-28T19:33:02.489Z,77.85
2022-09-28T19:35:26.013Z,78.65
2022-09-28T19:37:51.477Z,79.06
2022-09-28T19:40:15.092Z,79.76
2022-09-28T19:42:39.635Z,79.52
2022-09-28T19:45:03.392Z,79.54
2022-09-28T19:47:26.932Z,79.37
2022-09-28T19:49:50.462Z,80.93
2022-09-28T19:52:17.174Z,81.27
2022-09-28T19:54:43.948Z,80.89
2022-09-28T19:57:08.967Z,81.62
2022-09-28T19:59:32.647Z,81.05
2022-09-28T20:01:56.305Z,80.88
2022-09-28T20:04:22.896Z,81.57
2022-09-28T20:06:46.415Z,81.78
2022-09-28T20:09:10.031Z,81.85
2022-09-28T20:11:35.902Z,81.21
2022-09-28T20:14:00.754Z,82.03
2022-09-28T20:16:24.555Z,80.83
2022-09-28T20:18:50.199Z,80.41
2022-09-28T20:21:17.197Z,82.00
2022-09-28T20:23:41.801Z,82.52
2022-09-28T20:26:06.187Z,82.18
2022-09-28T20:28:31.225Z,82.23
2022-09-28T20:30:55.150Z,81.31
2022-09-28T20:33:28.665Z,82.80
2022-09-28T20:35:52.670Z,82.91
2022-09-28T20:38:16.195Z,81.82
2022-09-28T20:40:41.146Z,82.71
2022-09-28T20:43:07.168Z,82.84
2022-09-28T20:45:32.166Z,83.30
2022-09-28T20:47:55.679Z,85.22
2022-09-28T20:50:19.893Z,84.92
2022-09-28T20:52:43.519Z,86.23
2022-09-28T20:55:08.219Z,85.32
2022-09-28T20:57:31.839Z,86.25
2022-09-28T20:59:55.347Z,85.93
2022-09-28T21:02:20.375Z,86.78
2022-09-28T21:04:43.995Z,86.82
2022-09-28T21:07:07.553Z,87.88
2022-09-28T21:09:32.220Z,87.82
2022-09-28T21:11:55.727Z,88.46
2022-09-28T21:14:19.432Z,88.63
2022-09-28T21:16:43.017Z,87.02
2022-09-28T21:19:08.230Z,87.40
2022-09-28T21:21:31.993Z,88.08
2022-09-28T21:23:55.816Z,88.18
2022-09-28T21:26:25.599Z,87.79
2022-09-28T21:28:49.149Z,87.42
2022-09-28T21:31:13.505Z,87.31
2022-09-28T21:33:37.400Z,85.69
2022-09-28T21:36:04.975Z,86.57
2022-09-28T21:38:28.605Z,86.09
2022-09-28T21:40:57.176Z,86.28
2022-09-28T21:43:20.779Z,88.26
2022-09-28T21:45:44.337Z,88.36
2022-09-28T21:48:07.896Z,88.64
2022-09-28T21:50:31.419Z,88.82
2022-09-28T21:52:57.312Z,88.61
2022-09-28T21:55:22.120Z,87.49
2022-09-28T21:57:48.186Z,86.82
2022-09-28T22:00:14.458Z,87.33
2022-09-28T22:02:39.681Z,87.32
2022-09-28T22:05:03.238Z,86.76
2022-09-28T22:07:26.986Z,85.32
2022-09-28T22:09:53.644Z,86.92
2022-09-28T22:12:17.625Z,87.75
2022-09-28T22:14:41.138Z,86.94
2022-09-28T22:17:04.739Z,88.17
2022-09-28T22:19:28.295Z,87.21
2022-09-28T22:21:51.884Z,87.55
2022-09-28T22:24:15.425Z,86.86
2022-09-28T22:26:40.913Z,85.74
2022-09-28T22:29:07.176Z,86.43
2022-09-28T22:31:33.419Z,86.40
2022-09-28T22:33:57.463Z,87.58
2022-09-28T22:36:21.310Z,88.20
2022-09-28T22:38:45.423Z,86.70
2022-09-28T22:41:09.053Z,86.13
2022-09-28T22:43:34.800Z,88.37
2022-09-28T22:46:06.015Z,86.04
2022-09-28T22:48:29.663Z,88.45
2022-09-28T22:50:53.835Z,88.38
2022-09-28T22:53:17.483Z,87.04
2022-09-28T22:55:42.712Z,86.71
2022-09-28T22:58:06.425Z,85.83
2022-09-28T23:00:31.567Z,86.54
2022-09-28T23:02:55.258Z,86.01
2022-09-28T23:05:20.690Z,85.83
2022-09-28T23:07:44.603Z,87.47
2022-09-28T23:10:09.094Z,87.64
2022-09-28T23:12:33.397Z,86.24
2022-09-28T23:14:56.903Z,86.37
2022-09-28T23:17:21.848Z,84.65
2022-09-28T23:19:45.483Z,86.73
2022-09-28T23:22:09.034Z,87.00
2022-09-28T23:24:32.568Z,87.36
2022-09-28T23:26:56.124Z,87.97
2022-09-28T23:29:19.740Z,87.94
2022-09-28T23:31:44.161Z,86.88
2022-09-28T23:34:09.083Z,87.77
2022-09-28T23:36:33.571Z,86.78
2022-09-28T23:38:57.354Z,86.85
2022-09-28T23:41:20.954Z,87.09
2022-09-28T23:43:44.445Z,87.80
2022-09-28T23:46:08.466Z,89.73
2022-09-28T23:48:32.304Z,87.28
2022-09-28T23:50:57.278Z,87.78
2022-09-28T23:53:20.819Z,88.98
2022-09-28T23:55:44.899Z,89.98
2022-09-28T23:58:08.527Z,91.31
